Alberto Martínez

Jefe de ojeadores - Oviedo
12 Sep 2027
Domingo
Continuar

Personalidad

Adaptabilidad (13) Ambición (17) Controversia (12) Lealtad (1) Presión (10) Profesionalismo (8) Deportividad (10) Temperamento (20)

Perfil

Estilo de dirección Democrático
Licencia Continental C
Determinación 11
Gestión de personas 7
Motivación 10
Disciplina 7
Satisfacción laboral
68%
Fatiga
0%
Cargo Jefe de ojeadores
Salario 70.2K p/s
Contrato 14.03.2030

Rendimiento

Comportamiento Bueno
Efectividad del entrenamiento
33%
Desarrollo de jugadores
60%
Prevención de lesiones
60%
Implementación táctica
40%

Eventos recientes

Asistió a una reunión de captación 7d atrás
Recomendó un objetivo de fichaje 7d atrás
Asistió a una reunión de captación 14d atrás
Recomendó un objetivo de fichaje 14d atrás
Recomendó un objetivo de fichaje 14d atrás
Recomendó un objetivo de fichaje 14d atrás
Presentó un informe a la directiva 14d atrás
Evaluó a un jugador 14d atrás

Actualmente siguiendo

85
Jugador Club Estado Habilidad Confianza Observado Última observación Último voto
Esteban de Lima Tacuarembo Activo 95 / 104 40% 5 26.08.2027 -
Kaick FC Dallas Activo 98 / 101 40% 1 26.08.2027 -
Hosea Michael Remo Stars Activo 94 / 86 40% 1 26.08.2027 -
Simone Kosijer Triestina Activo 97 / 99 40% 4 16.08.2027 -
Izan Merino Málaga Activo 128 / 136 40% 1 16.08.2027 -
Chibueze Oputa Rangers International Activo 87 / 89 40% 4 12.08.2027 -
Facundo Balatti Penarol Activo 96 / 108 40% 2 12.08.2027 -
Santino Gatti Belgrano Activo 93 / 113 40% 1 12.08.2027 -
Juan Giménez Athletic Bilbao Activo 130 / 117 40% 1 11.08.2027 -
Halam Loboa Osasuna Activo 116 / 131 40% 1 11.08.2027 -
Augusto Bando Ascoli Activo 101 / 126 40% 1 11.08.2027 -
Alessio Insignito Spezia Activo 95 / 117 40% 1 10.08.2027 -
Musa Danjuma Hatayspor Activo 82 / 95 40% 1 10.08.2027 -
Mattia Puzone Siracusa Activo 105 / 107 40% 1 10.08.2027 -
Jose Rodriguez La Equidad Activo 91 / 95 40% 7 08.08.2027 -
Wilmar Borja La Equidad Activo 97 / 115 40% 3 06.08.2027 -
T-Jay Parfitt Colchester United Activo 99 / 99 40% 3 06.08.2027 -
Rafael Vargas Cortulua Activo 90 / 94 40% 6 05.08.2027 -
Manuel Lopez Valledupar Activo 99 / 106 40% 2 05.08.2027 -
Victor Martinez Atletico Venezuela Activo 83 / 95 40% 2 04.08.2027 -
Mats Egbring Heerenveen Activo 98 / 111 40% 1 04.08.2027 -
Kazunari Kita Real Sociedad Activo 110 / 111 40% 1 04.08.2027 Rechazar
Miguel Figueiredo Benfica Activo 121 / 116 40% 6 02.08.2027 -
Daniel Banjaqui Benfica Activo 117 / 122 40% 10 02.08.2027 -
Saba Kharebashvili Basaksehir Activo 113 / 144 40% 5 01.08.2027 -
Bastien Meupiyou Alverca Activo 130 / 130 40% 6 01.08.2027 -
Salvador Blopá Sporting CP Activo 113 / 136 40% 2 30.07.2027 -
Gady Beyuku Modena Activo 110 / 131 40% 2 28.07.2027 -
Dylan Lawlor Cardiff City Activo 115 / 124 40% 4 27.07.2027 -
Ismaël Baouf Cambuur Activo 118 / 126 40% 4 27.07.2027 -
Teo Rodríguez Pagano San Lorenzo Activo 120 / 125 40% 4 24.07.2027 -
Joe Knight Stevenage Activo 103 / 114 40% 2 17.07.2027 -
Alexis Vossah Toulouse FC Rechazado 118 / 122 40% 6 15.07.2027 Rechazar
Louis Leroux FC Nantes Activo 136 / 138 40% 4 15.07.2027 -
Victor Corona Santos Laguna Activo 98 / 124 40% 2 14.07.2027 -
Joe Bauress Grimsby Town Activo 84 / 94 40% 1 12.07.2027 -
Alessandro Ventre Vis Pesaro Activo 94 / 97 40% 1 12.07.2027 -
Milan Roganović Partizan Activo 107 / 113 40% 5 11.07.2027 -
José Neto Alverca Rechazado 120 / 132 40% 4 07.07.2027 Rechazar
Jenson Jones Peterborough United Activo 100 / 95 40% 2 07.07.2027 -
Fabián Correa Barranquilla Activo 80 / 90 40% 2 06.07.2027 -
Jonathan Bland Barnsley Activo 112 / 120 40% 4 05.07.2027 -
José Pachuca Puebla Activo 107 / 102 40% 3 05.07.2027 -
Toni Tamarit Alverca Activo 113 / 130 40% 1 30.06.2027 -
Riley Owen Bristol Rovers Activo 105 / 118 40% 4 27.06.2027 -
Pape Diong Westerlo Activo 108 / 112 40% 3 26.06.2027 -
Alpha Touré FC Metz Activo 114 / 123 40% 2 22.06.2027 -
Mattia Mannini Juve Stabia Activo 111 / 125 40% 2 21.06.2027 -
Martim Cunha Porto Activo 104 / 106 40% 4 20.06.2027 -
Marco Oroná Antofagasta Activo 106 / 109 40% 1 17.06.2027 -
Rubén Pulido Leganés Activo 119 / 129 69% 1 14.06.2027 Aprobar
Afriyie Sulemana Hasaacas Activo 99 / 88 40% 3 11.06.2027 -
Ezra Mayers West Ham United Activo 123 / 137 40% 3 10.06.2027 -
Felipe Faúndez O'Higgins Activo 108 / 104 40% 1 09.06.2027 -
Rubén Sobrino Cultural Leonesa Perdido 127 / 116 69% 1 06.06.2027 -
Riyad Idrissi Cagliari Activo 117 / 132 40% 1 05.06.2027 -
Elie N'Gatta Sochaux Activo 93 / 96 40% 1 31.01.2027 -
Joaquin Seys Club Brugge Activo 120 / 127 40% 1 31.01.2027 -
Jorge Salinas Racing Santander Activo 127 / 129 40% 3 30.01.2027 -
Simphiwe Selepe Orlando Pirates Activo 120 / 118 40% 1 30.01.2027 -
Yassine Khalifi Charleroi Activo 103 / 101 40% 2 28.01.2027 -
James Dornelly Peterborough United Activo 107 / 99 40% 2 23.01.2027 -
Ignacio Perruzzi San Lorenzo Activo 118 / 129 40% 2 22.01.2027 -
Agustín Obregón River Plate Activo 101 / 111 40% 1 20.01.2027 -
Davinchi Getafe Activo 114 / 129 69% 1 18.01.2027 Aprobar
Lucas Agazzi Benfica Activo 114 / 133 40% 1 12.01.2027 -
Arjan Malić Sturm Graz Activo 116 / 121 40% 1 05.01.2027 -
Mohammed El Âdfaoui KAA Gent Activo 114 / 118 40% 1 05.01.2027 -
Kyriani Sabbe Club Brugge Activo 116 / 125 40% 1 05.01.2027 -
Cemran Dansin Orlando Pirates Activo 120 / 110 40% 1 04.01.2027 -
Nazareno Kihm Ferro Carril Oeste Activo 105 / 118 40% 1 01.01.2027 -
Hugo Cuypers Monterrey Activo 126 / 134 40% 1 24.08.2026 -
Jhojan Julio Queretaro Activo 112 / 114 40% 1 24.08.2026 -
Carlos Sarabia Millonarios Activo 107 / 113 40% 1 12.08.2026 -
Óscar Plano Leganés Activo 137 / 129 69% 1 10.08.2026 Aprobar
Ian Garguez Palestino Activo 109 / 103 40% 1 10.08.2026 -
Ezequiel Burdin Defensa y Justicia Activo 111 / 108 40% 1 10.08.2026 -
Mateo Mendoza Godoy Cruz Activo 127 / 125 40% 1 10.08.2026 -
Juan Pablo De la Reta Maipú Activo 106 / 116 40% 1 09.08.2026 -
Valentín Aguiñagalde Temperley Activo 107 / 105 40% 1 04.08.2026 -
Thiago Helguera Braga Activo 123 / 129 40% 1 04.08.2026 -
Diogo Bagüí Tijuana Activo 112 / 114 40% 1 03.08.2026 -
Santino Barbi Talleres Activo 114 / 105 40% 1 02.08.2026 -
Santiago Silva Boston River Activo 125 / 112 40% 1 02.08.2026 -
Ezequiel Centurión River Plate Activo 119 / 112 40% 1 02.08.2026 -